createdAt,value
2018-07-08T00:00:31.654Z,54.1
2018-07-08T00:01:22.572Z,54.1
2018-07-08T00:02:12.647Z,54.1
2018-07-08T00:03:02.151Z,54.1
2018-07-08T00:03:52.480Z,54
2018-07-08T00:04:42.530Z,54
2018-07-08T00:05:32.888Z,54
2018-07-08T00:06:22.402Z,54
2018-07-08T00:07:13.017Z,54
2018-07-08T00:08:03.107Z,54
2018-07-08T00:08:52.601Z,53.9
2018-07-08T00:09:43.207Z,53.9
2018-07-08T00:10:33.301Z,53.9
2018-07-08T00:11:23.316Z,53.9
2018-07-08T00:12:13.107Z,53.9
2018-07-08T00:13:03.478Z,53.9
2018-07-08T00:13:53.011Z,53.9
2018-07-08T00:14:43.031Z,53.9
2018-07-08T00:15:33.648Z,53.9
2018-07-08T00:16:23.159Z,53.9
2018-07-08T00:17:13.511Z,53.9
2018-07-08T00:18:03.839Z,53.9
2018-07-08T00:18:53.387Z,53.9
2018-07-08T00:19:44.015Z,53.8
2018-07-08T00:20:33.535Z,53.8
2018-07-08T00:21:23.833Z,53.8
2018-07-08T00:22:14.175Z,53.8
2018-07-08T00:23:03.995Z,53.8
2018-07-08T00:23:54.061Z,53.8
2018-07-08T00:24:44.422Z,53.8
2018-07-08T00:25:34.176Z,53.8
2018-07-08T00:26:24.597Z,53.8
2018-07-08T00:27:14.405Z,53.8
2018-07-08T00:28:04.376Z,53.8
2018-07-08T00:28:54.718Z,53.8
2018-07-08T00:29:43.954Z,53.7
2018-07-08T00:30:34.852Z,53.7
2018-07-08T00:31:24.363Z,53.7
2018-07-08T00:32:14.423Z,53.7
2018-07-08T00:33:04.761Z,53.7
2018-07-08T00:33:55.143Z,53.6
2018-07-08T00:34:44.921Z,53.7
2018-07-08T00:35:35.037Z,53.7
2018-07-08T00:36:25.319Z,53.6
2018-07-08T00:37:14.566Z,53.6
2018-07-08T00:38:04.896Z,53.6
2018-07-08T00:38:55.520Z,53.6
2018-07-08T00:39:44.931Z,53.6
2018-07-08T00:40:35.146Z,53.6
2018-07-08T00:41:25.676Z,53.6
2018-07-08T00:42:15.471Z,53.6
2018-07-08T00:43:05.541Z,53.6
2018-07-08T00:43:55.348Z,53.6
2018-07-08T00:44:45.399Z,53.6
2018-07-08T00:45:36.010Z,53.5
2018-07-08T00:46:26.095Z,53.5
2018-07-08T00:47:15.595Z,53.5
2018-07-08T00:48:06.266Z,53.5
2018-07-08T00:48:55.999Z,53.5
2018-07-08T00:49:46.324Z,53.5
2018-07-08T00:50:36.113Z,53.5
2018-07-08T00:51:26.454Z,53.4
2018-07-08T00:52:16.525Z,53.4
2018-07-08T00:53:06.610Z,53.4
2018-07-08T00:53:56.199Z,53.4
2018-07-08T00:54:46.726Z,53.4
2018-07-08T00:55:36.833Z,53.4
2018-07-08T00:56:26.372Z,53.4
2018-07-08T00:57:15.607Z,53.4
2018-07-08T00:58:06.235Z,53.4
2018-07-08T00:58:56.307Z,53.4
2018-07-08T00:59:46.392Z,53.4
2018-07-08T01:00:37.180Z,53.4
2018-07-08T01:01:27.003Z,53.3
2018-07-08T01:02:16.830Z,53.3
2018-07-08T01:03:07.426Z,53.3
2018-07-08T01:03:57.460Z,53.3
2018-07-08T01:04:47.557Z,53.3
2018-07-08T01:05:37.564Z,53.3
2018-07-08T01:06:27.401Z,53.3
2018-07-08T01:07:17.465Z,53.3
2018-07-08T01:08:07.825Z,53.3
2018-07-08T01:08:57.575Z,53.3
2018-07-08T01:09:47.916Z,53.3
2018-07-08T01:10:37.447Z,53.3
2018-07-08T01:11:28.025Z,53.2
2018-07-08T01:12:17.003Z,53.3
2018-07-08T01:13:07.865Z,53.2
2018-07-08T01:13:57.934Z,53.2
2018-07-08T01:14:47.460Z,53.2
2018-07-08T01:15:38.112Z,53.2
2018-07-08T01:16:27.931Z,53.2
2018-07-08T01:17:17.653Z,53.1
2018-07-08T01:18:08.020Z,53.2
2018-07-08T01:18:58.074Z,53.1
2018-07-08T01:19:47.923Z,53.1
2018-07-08T01:20:38.465Z,53.1
2018-07-08T01:21:28.822Z,53.1
2018-07-08T01:22:18.142Z,53.1
2018-07-08T01:23:08.714Z,53.1
2018-07-08T01:23:57.912Z,53.1
2018-07-08T01:24:47.758Z,53.1
2018-07-08T01:25:38.125Z,53.1
2018-07-08T01:26:28.450Z,53
2018-07-08T01:27:18.542Z,53.1
2018-07-08T01:28:08.581Z,53
2018-07-08T01:28:58.687Z,53
2018-07-08T01:29:48.728Z,53
2018-07-08T01:30:38.520Z,53
2018-07-08T01:31:28.615Z,53
2018-07-08T01:32:18.640Z,52.9
2018-07-08T01:33:09.008Z,52.9
2018-07-08T01:33:59.531Z,52.9
2018-07-08T01:34:49.575Z,52.9
2018-07-08T01:35:39.640Z,52.9
2018-07-08T01:36:29.963Z,52.9
2018-07-08T01:37:19.243Z,52.9
2018-07-08T01:38:09.852Z,52.9
2018-07-08T01:38:59.902Z,52.9
2018-07-08T01:39:49.701Z,52.9
2018-07-08T01:40:40.061Z,52.9
2018-07-08T01:41:30.355Z,52.8
2018-07-08T01:42:20.441Z,52.8
2018-07-08T01:43:09.673Z,52.6
2018-07-08T01:44:00.290Z,52.5
2018-07-08T01:44:50.683Z,52.4
2018-07-08T01:47:20.529Z,52.4
2018-07-08T01:48:10.630Z,52.5
2018-07-08T01:49:00.726Z,52.6
2018-07-08T01:49:50.748Z,52.8
2018-07-08T01:50:40.544Z,53
2018-07-08T01:51:30.620Z,53.2
2018-07-08T01:52:20.668Z,53.4
2018-07-08T01:53:10.777Z,53.6
2018-07-08T01:54:00.830Z,53.8
2018-07-08T01:54:50.883Z,54
2018-07-08T01:55:40.952Z,54.3
2018-07-08T01:56:31.277Z,54.4
2018-07-08T01:57:21.355Z,54.7
2018-07-08T01:58:11.151Z,54.9
2018-07-08T01:59:01.188Z,55.1
2018-07-08T01:59:51.301Z,55.4
2018-07-08T02:00:41.918Z,55.6
2018-07-08T02:01:31.944Z,55.8
2018-07-08T02:02:22.043Z,56
2018-07-08T02:03:11.801Z,56.3
2018-07-08T02:04:01.688Z,56.5
2018-07-08T02:04:51.386Z,56.8
2018-07-08T02:05:41.591Z,57
2018-07-08T02:06:31.583Z,57.2
2018-07-08T02:07:21.970Z,57.4
2018-07-08T02:08:11.778Z,57.7
2018-07-08T02:09:02.276Z,57.9
2018-07-08T02:09:52.327Z,58.1
2018-07-08T02:10:42.398Z,58.4
2018-07-08T02:11:32.454Z,58.6
2018-07-08T02:12:22.805Z,58.8
2018-07-08T02:13:12.588Z,59.1
2018-07-08T02:14:02.937Z,59.3
2018-07-08T02:14:52.489Z,59.3
2018-07-08T02:15:42.316Z,59.5
2018-07-08T02:16:31.821Z,59.7
2018-07-08T02:17:22.715Z,59.9
2018-07-08T02:18:13.037Z,60
2018-07-08T02:19:02.575Z,60.1
2018-07-08T02:19:52.938Z,60.3
2018-07-08T02:20:43.025Z,60.5
2018-07-08T02:21:32.465Z,60.8
2018-07-08T02:22:22.759Z,60.9
2018-07-08T02:23:13.677Z,60.9
2018-07-08T02:24:03.433Z,61
2018-07-08T02:24:53.510Z,61.3
2018-07-08T02:25:43.848Z,61.3
2018-07-08T02:26:33.604Z,61.4
2018-07-08T02:27:23.721Z,61.4
2018-07-08T02:28:14.037Z,61.7
2018-07-08T02:29:03.537Z,61.8
2018-07-08T02:29:53.929Z,61.8
2018-07-08T02:30:43.688Z,61.9
2018-07-08T02:31:34.330Z,62.1
2018-07-08T02:32:23.843Z,62.3
2018-07-08T02:33:14.189Z,62.3
2018-07-08T02:34:04.249Z,62.3
2018-07-08T02:34:53.751Z,62.5
2018-07-08T02:35:43.780Z,62.6
2018-07-08T02:36:34.722Z,62.6
2018-07-08T02:37:24.793Z,62.7
2018-07-08T02:38:14.592Z,62.7
2018-07-08T02:39:04.324Z,62.7
2018-07-08T02:39:54.970Z,62.8
2018-07-08T02:40:44.790Z,62.8
2018-07-08T02:41:34.809Z,62.8
2018-07-08T02:42:25.207Z,62.9
2018-07-08T02:43:14.701Z,62.9
2018-07-08T02:44:05.076Z,62.8
2018-07-08T02:44:55.091Z,62.8
2018-07-08T02:45:45.443Z,62.8
2018-07-08T02:46:35.227Z,62.8
2018-07-08T02:47:25.551Z,62.8
2018-07-08T02:48:15.602Z,62.8
2018-07-08T02:49:05.428Z,62.8
2018-07-08T02:49:55.473Z,62.8
2018-07-08T02:50:44.691Z,62.8
2018-07-08T02:51:35.616Z,62.8
2018-07-08T02:52:25.118Z,62.8
2018-07-08T02:53:16.024Z,62.8
2018-07-08T02:54:06.136Z,62.8
2018-07-08T02:54:55.560Z,62.8
2018-07-08T02:55:46.017Z,62.8
2018-07-08T02:56:35.944Z,62.8
2018-07-08T02:57:25.523Z,62.8
2018-07-08T02:58:16.119Z,62.8
2018-07-08T02:59:06.200Z,62.8
2018-07-08T02:59:56.563Z,62.7
2018-07-08T03:00:45.765Z,62.7
2018-07-08T03:01:36.385Z,62.7
2018-07-08T03:02:26.452Z,62.7
2018-07-08T03:03:16.015Z,62.7
2018-07-08T03:04:06.473Z,62.7
2018-07-08T03:04:56.429Z,62.6
2018-07-08T03:05:46.723Z,62.7
2018-07-08T03:06:35.718Z,62.6
2018-07-08T03:07:27.144Z,62.6
2018-07-08T03:08:16.396Z,62.6
2018-07-08T03:09:06.757Z,62.6
2018-07-08T03:09:56.845Z,62.6
2018-07-08T03:10:46.665Z,62.6
2018-07-08T03:11:36.694Z,62.6
2018-07-08T03:12:26.937Z,62.6
2018-07-08T03:13:17.285Z,62.6
2018-07-08T03:14:07.128Z,62.6
2018-07-08T03:14:57.218Z,62.6
2018-07-08T03:15:47.001Z,62.6
2018-07-08T03:16:37.352Z,62.5
2018-07-08T03:17:27.102Z,62.5
2018-07-08T03:18:17.178Z,62.5
2018-07-08T03:19:07.763Z,62.5
2018-07-08T03:19:57.604Z,62.5
2018-07-08T03:20:48.142Z,62.5
2018-07-08T03:21:37.475Z,62.4
2018-07-08T03:22:28.288Z,62.5
2018-07-08T03:23:18.043Z,62.5
2018-07-08T03:24:07.629Z,62.4
2018-07-08T03:24:57.921Z,62.4
2018-07-08T03:25:48.950Z,62.4
2018-07-08T03:26:38.306Z,62.4
2018-07-08T03:27:28.362Z,62.4
2018-07-08T03:28:18.721Z,62.4
2018-07-08T03:29:08.494Z,62.4
2018-07-08T03:29:58.038Z,62.4
2018-07-08T03:30:48.898Z,62.4
2018-07-08T03:31:39.005Z,62.4
2018-07-08T03:32:28.773Z,62.4
2018-07-08T03:33:19.226Z,62.4
2018-07-08T03:34:09.209Z,62.3
2018-07-08T03:34:59.287Z,62.4
2018-07-08T03:35:48.763Z,62.4
2018-07-08T03:36:39.100Z,62.3
2018-07-08T03:37:29.456Z,62.3
2018-07-08T03:38:18.663Z,62.3
2018-07-08T03:39:09.023Z,62.3
2018-07-08T03:39:59.670Z,62.3
2018-07-08T03:40:49.430Z,62.3
2018-07-08T03:41:39.215Z,62.3
2018-07-08T03:42:29.553Z,62.3
2018-07-08T03:43:19.605Z,62.3
2018-07-08T03:44:09.682Z,62.3
2018-07-08T03:44:59.777Z,62.3
2018-07-08T03:45:49.812Z,62.3
2018-07-08T03:46:39.882Z,62.3
2018-07-08T03:47:30.269Z,62.3
2018-07-08T03:48:19.457Z,62.3
2018-07-08T03:49:09.790Z,62.3
2018-07-08T03:50:00.404Z,62.3
2018-07-08T03:50:50.219Z,62.3
2018-07-08T03:51:40.067Z,62.2
2018-07-08T03:52:30.327Z,62.2
2018-07-08T03:53:20.165Z,62.2
2018-07-08T03:54:09.898Z,62.2
2018-07-08T03:55:00.816Z,62.2
2018-07-08T03:55:50.864Z,62.2
2018-07-08T03:56:40.372Z,62.2
2018-07-08T03:57:30.987Z,62.1
2018-07-08T03:58:20.507Z,62.1
2018-07-08T03:59:10.845Z,62.1
2018-07-08T04:00:01.188Z,62.1
2018-07-08T04:00:50.743Z,62.1
2018-07-08T04:01:40.551Z,62.1
2018-07-08T04:02:31.375Z,62.1
2018-07-08T04:03:21.164Z,62.1
2018-07-08T04:04:11.256Z,62.1
2018-07-08T04:05:01.261Z,62.1
2018-07-08T04:05:51.347Z,62.1
2018-07-08T04:06:41.392Z,62.1
2018-07-08T04:07:31.576Z,62.1
2018-07-08T04:08:21.839Z,62.1
2018-07-08T04:09:11.877Z,62.1
2018-07-08T04:10:01.989Z,62.1
2018-07-08T04:10:51.452Z,62.1
2018-07-08T04:11:41.819Z,62
2018-07-08T04:12:32.172Z,62
2018-07-08T04:13:21.393Z,62
2018-07-08T04:14:12.329Z,62
2018-07-08T04:15:02.381Z,62
2018-07-08T04:15:52.426Z,62
2018-07-08T04:16:42.506Z,62
2018-07-08T04:17:32.164Z,62
2018-07-08T04:18:22.627Z,61.9
2018-07-08T04:19:12.410Z,61.9
2018-07-08T04:20:02.735Z,61.9
2018-07-08T04:20:52.831Z,61.9
2018-07-08T04:21:42.875Z,61.9
2018-07-08T04:22:32.941Z,61.9
2018-07-08T04:23:22.190Z,61.9
2018-07-08T04:24:12.581Z,61.9
2018-07-08T04:25:02.404Z,61.9
2018-07-08T04:25:52.681Z,61.9
2018-07-08T04:26:43.009Z,61.9
2018-07-08T04:27:33.063Z,61.9
2018-07-08T04:28:22.846Z,61.9
2018-07-08T04:29:13.455Z,61.9
2018-07-08T04:30:03.278Z,61.9
2018-07-08T04:30:53.382Z,61.9
2018-07-08T04:31:43.654Z,61.8
2018-07-08T04:32:33.175Z,61.9
2018-07-08T04:33:23.784Z,61.8
2018-07-08T04:34:13.610Z,61.8
2018-07-08T04:35:03.106Z,61.8
2018-07-08T04:35:54.014Z,61.8
2018-07-08T04:36:44.070Z,61.8
2018-07-08T04:37:33.913Z,61.8
2018-07-08T04:38:24.226Z,61.8
2018-07-08T04:39:13.986Z,61.8
2018-07-08T04:40:04.029Z,61.8
2018-07-08T04:40:53.562Z,61.8
2018-07-08T04:41:44.135Z,61.8
2018-07-08T04:42:33.954Z,61.8
2018-07-08T04:43:24.561Z,61.8
2018-07-08T04:44:13.499Z,61.8
2018-07-08T04:45:03.989Z,61.8
2018-07-08T04:45:54.213Z,61.8
2018-07-08T04:46:44.534Z,61.7
2018-07-08T04:47:34.636Z,61.7
2018-07-08T04:48:24.943Z,61.7
2018-07-08T04:49:14.949Z,61.7
2018-07-08T04:50:04.836Z,61.7
2018-07-08T04:50:54.325Z,61.7
2018-07-08T04:51:44.938Z,61.7
2018-07-08T04:52:34.752Z,61.6
2018-07-08T04:53:24.794Z,61.6
2018-07-08T04:54:15.155Z,61.6
2018-07-08T04:55:05.466Z,61.6
2018-07-08T04:55:54.957Z,61.6
2018-07-08T04:56:45.073Z,61.6
2018-07-08T04:57:35.113Z,61.6
2018-07-08T04:58:24.989Z,61.6
2018-07-08T04:59:15.325Z,61.6
2018-07-08T05:00:05.609Z,61.6
2018-07-08T05:00:55.234Z,61.6
2018-07-08T05:01:46.001Z,61.6
2018-07-08T05:02:35.515Z,61.6
2018-07-08T05:03:25.668Z,61.6
2018-07-08T05:04:15.925Z,61.6
2018-07-08T05:05:05.711Z,61.6
2018-07-08T05:05:56.089Z,61.6
2018-07-08T05:06:46.460Z,61.6
2018-07-08T05:07:35.895Z,61.5
2018-07-08T05:08:26.030Z,61.5
2018-07-08T05:09:16.595Z,61.5
2018-07-08T05:10:06.674Z,61.5
2018-07-08T05:10:56.456Z,61.5
2018-07-08T05:11:46.767Z,61.5
2018-07-08T05:12:36.575Z,61.5
2018-07-08T05:13:26.890Z,61.5
2018-07-08T05:14:16.709Z,61.4
2018-07-08T05:15:07.018Z,61.4
2018-07-08T05:15:56.809Z,61.4
2018-07-08T05:16:46.363Z,61.4
2018-07-08T05:17:36.679Z,61.4
2018-07-08T05:18:27.009Z,61.4
2018-07-08T05:19:17.351Z,61.4
2018-07-08T05:20:07.136Z,61.4
2018-07-08T05:20:57.505Z,61.4
2018-07-08T05:21:47.324Z,61.4
2018-07-08T05:22:37.634Z,61.4
2018-07-08T05:23:27.711Z,61.4
2018-07-08T05:24:17.185Z,61.4
2018-07-08T05:25:07.520Z,61.4
2018-07-08T05:25:57.623Z,61.4
2018-07-08T05:26:47.665Z,61.4
2018-07-08T05:27:37.493Z,61.3
2018-07-08T05:28:28.089Z,61.3
2018-07-08T05:29:17.592Z,61.3
2018-07-08T05:30:08.291Z,61.3
2018-07-08T05:30:58.268Z,61.3
2018-07-08T05:31:48.353Z,61.3
2018-07-08T05:32:37.384Z,61.3
2018-07-08T05:33:27.433Z,61.3
2018-07-08T05:34:18.265Z,61.3
2018-07-08T05:35:08.395Z,61.3
2018-07-08T05:35:58.683Z,61.3
2018-07-08T05:36:48.773Z,61.3
2018-07-08T05:37:38.519Z,61.3
2018-07-08T05:38:28.589Z,61.3
2018-07-08T05:39:18.652Z,61.3
2018-07-08T05:40:08.417Z,61.3
2018-07-08T05:40:58.567Z,61.2
2018-07-08T05:41:48.356Z,61.3
2018-07-08T05:42:38.979Z,61.3
2018-07-08T05:43:29.252Z,61.2
2018-07-08T05:44:18.737Z,61.2
2018-07-08T05:45:09.088Z,61.2
2018-07-08T05:45:59.449Z,61.2
2018-07-08T05:46:49.223Z,61.2
2018-07-08T05:47:39.307Z,61.1
2018-07-08T05:48:29.602Z,61.1
2018-07-08T05:49:19.417Z,61.1
2018-07-08T05:50:09.573Z,61.1
2018-07-08T05:50:59.803Z,61.1
2018-07-08T05:51:49.609Z,61.1
2018-07-08T05:52:39.677Z,61.1
2018-07-08T05:53:29.784Z,61.1
2018-07-08T05:54:20.096Z,61.1
2018-07-08T05:55:09.902Z,61.1
2018-07-08T05:56:00.227Z,61.1
2018-07-08T05:56:49.835Z,61.1
2018-07-08T05:57:40.404Z,61.1
2018-07-08T05:58:29.574Z,61.1
2018-07-08T05:59:19.736Z,61.1
2018-07-08T06:00:10.581Z,61.1
2018-07-08T06:01:00.633Z,61
2018-07-08T06:01:50.453Z,61.1
2018-07-08T06:02:40.461Z,61
2018-07-08T06:03:30.542Z,61
2018-07-08T06:04:20.851Z,61
2018-07-08T06:05:10.632Z,61
2018-07-08T06:06:00.972Z,61
2018-07-08T06:06:50.761Z,61
2018-07-08T06:07:41.172Z,61
2018-07-08T06:08:30.625Z,61
2018-07-08T06:09:21.305Z,60.9
2018-07-08T06:10:11.313Z,60.9
2018-07-08T06:11:01.111Z,60.9
2018-07-08T06:11:51.171Z,60.9
2018-07-08T06:12:40.932Z,60.9
2018-07-08T06:13:31.553Z,60.9
2018-07-08T06:14:21.095Z,60.9
2018-07-08T06:15:11.711Z,60.9
2018-07-08T06:16:01.490Z,60.9
2018-07-08T06:16:52.145Z,60.9
2018-07-08T06:17:41.890Z,60.9
2018-07-08T06:18:31.439Z,60.9
2018-07-08T06:19:22.043Z,60.9
2018-07-08T06:20:11.833Z,60.9
2018-07-08T06:21:01.625Z,60.8
2018-07-08T06:21:51.420Z,60.9
2018-07-08T06:22:42.057Z,60.8
2018-07-08T06:23:32.385Z,60.8
2018-07-08T06:24:22.156Z,60.8
2018-07-08T06:25:12.293Z,60.8
2018-07-08T06:26:02.571Z,60.8
2018-07-08T06:26:52.073Z,60.8
2018-07-08T06:27:42.141Z,60.8
2018-07-08T06:28:31.646Z,60.8
2018-07-08T06:29:22.542Z,60.8
2018-07-08T06:30:12.340Z,60.8
2018-07-08T06:31:02.443Z,60.8
2018-07-08T06:31:53.416Z,60.8
2018-07-08T06:32:42.794Z,60.8
2018-07-08T06:33:32.871Z,60.8
2018-07-08T06:34:23.220Z,60.8
2018-07-08T06:35:12.992Z,60.7
2018-07-08T06:36:03.090Z,60.7
2018-07-08T06:36:52.577Z,60.7
2018-07-08T06:37:42.930Z,60.7
2018-07-08T06:38:33.577Z,60.7
2018-07-08T06:39:23.749Z,60.6
2018-07-08T06:40:13.658Z,60.7
2018-07-08T06:41:03.722Z,60.6
2018-07-08T06:41:53.258Z,60.6
2018-07-08T06:42:43.589Z,60.6
2018-07-08T06:43:33.644Z,60.6
2018-07-08T06:44:23.450Z,60.6
2018-07-08T06:45:13.789Z,60.6
2018-07-08T06:46:04.119Z,60.6
2018-07-08T06:46:53.881Z,60.6
2018-07-08T06:47:43.960Z,60.6
2018-07-08T06:48:33.764Z,60.6
2018-07-08T06:49:24.087Z,60.6
2018-07-08T06:50:14.461Z,60.6
2018-07-08T06:51:04.521Z,60.6
2018-07-08T06:51:54.781Z,60.6
2018-07-08T06:52:44.615Z,60.6
2018-07-08T06:53:34.691Z,60.5
2018-07-08T06:54:23.932Z,60.5
2018-07-08T06:55:14.835Z,60.5
2018-07-08T06:56:04.359Z,60.5
2018-07-08T06:56:54.976Z,60.5
2018-07-08T06:57:44.812Z,60.5
2018-07-08T06:58:34.538Z,60.5
2018-07-08T06:59:24.598Z,60.4
2018-07-08T07:00:15.249Z,60.4
2018-07-08T07:01:05.369Z,60.5
2018-07-08T07:01:54.796Z,60.4
2018-07-08T07:02:44.566Z,60.4
2018-07-08T07:03:35.547Z,60.4
2018-07-08T07:04:24.722Z,60.4
2018-07-08T07:05:15.681Z,60.4
2018-07-08T07:06:05.399Z,60.4
2018-07-08T07:06:55.497Z,60.4
2018-07-08T07:07:45.552Z,60.4
2018-07-08T07:08:35.325Z,60.4
2018-07-08T07:09:25.945Z,60.4
2018-07-08T07:10:16.004Z,60.4
2018-07-08T07:11:05.527Z,60.3
2018-07-08T07:11:55.576Z,60.3
2018-07-08T07:12:46.196Z,60.3
2018-07-08T07:13:35.230Z,60.3
2018-07-08T07:14:26.041Z,60.3
2018-07-08T07:15:16.367Z,60.3
2018-07-08T07:16:05.898Z,60.3
2018-07-08T07:16:55.737Z,60.3
2018-07-08T07:17:46.562Z,60.3
2018-07-08T07:18:36.362Z,60.3
2018-07-08T07:19:26.157Z,60.3
2018-07-08T07:20:16.804Z,60.3
2018-07-08T07:21:06.285Z,60.3
2018-07-08T07:21:56.156Z,60.3
2018-07-08T07:22:46.687Z,60.3
2018-07-08T07:23:37.016Z,60.2
2018-07-08T07:24:26.835Z,60.2
2018-07-08T07:25:17.147Z,60.3
2018-07-08T07:26:06.739Z,60.2
2018-07-08T07:26:56.734Z,60.2
2018-07-08T07:27:47.355Z,60.2
2018-07-08T07:28:37.478Z,60.2
2018-07-08T07:29:27.206Z,60.2
2018-07-08T07:30:17.533Z,60.1
2018-07-08T07:31:07.319Z,60.1
2018-07-08T07:31:57.669Z,60.1
2018-07-08T07:32:47.476Z,60.1
2018-07-08T07:33:37.527Z,60.1
2018-07-08T07:34:27.875Z,60.1
2018-07-08T07:35:17.687Z,60.1
2018-07-08T07:36:07.458Z,60.1
2018-07-08T07:36:58.146Z,60.1
2018-07-08T07:37:48.176Z,60.1
2018-07-08T07:38:38.218Z,60.1
2018-07-08T07:39:27.491Z,60.1
2018-07-08T07:40:17.781Z,60.1
2018-07-08T07:41:08.185Z,60.1
2018-07-08T07:41:58.495Z,60.1
2018-07-08T07:42:48.558Z,60
2018-07-08T07:43:38.356Z,60
2018-07-08T07:44:28.130Z,60
2018-07-08T07:45:18.791Z,60
2018-07-08T07:46:08.321Z,60
2018-07-08T07:46:58.865Z,60
2018-07-08T07:47:48.926Z,60
2018-07-08T07:48:38.717Z,59.9
2018-07-08T07:49:29.048Z,59.9
2018-07-08T07:50:18.563Z,59.9
2018-07-08T07:51:09.477Z,59.9
2018-07-08T07:51:58.941Z,59.9
2018-07-08T07:52:48.200Z,59.9
2018-07-08T07:53:39.091Z,59.9
2018-07-08T07:54:29.177Z,59.9
2018-07-08T07:55:19.293Z,59.9
2018-07-08T07:56:09.035Z,59.9
2018-07-08T07:56:59.596Z,59.9
2018-07-08T07:57:49.690Z,59.9
2018-07-08T07:58:39.727Z,59.9
2018-07-08T07:59:29.809Z,59.9
2018-07-08T08:00:19.380Z,59.9
2018-07-08T08:01:09.639Z,59.8
2018-07-08T08:01:59.733Z,59.8
2018-07-08T08:02:49.907Z,59.8
2018-07-08T08:03:40.126Z,59.8
2018-07-08T08:04:30.194Z,59.8
2018-07-08T08:05:20.285Z,59.8
2018-07-08T08:06:09.771Z,59.8
2018-07-08T08:07:00.113Z,59.8
2018-07-08T08:07:50.477Z,59.8
2018-07-08T08:08:40.521Z,59.8
2018-07-08T08:09:30.340Z,59.8
2018-07-08T08:10:20.387Z,59.8
2018-07-08T08:11:10.177Z,59.8
2018-07-08T08:12:00.824Z,59.8
2018-07-08T08:12:50.589Z,59.8
2018-07-08T08:13:40.946Z,59.7
2018-07-08T08:14:30.452Z,59.7
2018-07-08T08:15:21.070Z,59.7
2018-07-08T08:16:11.112Z,59.7
2018-07-08T08:17:00.612Z,59.7
2018-07-08T08:17:51.246Z,59.7
2018-07-08T08:18:41.052Z,59.7
2018-07-08T08:19:30.809Z,59.6
2018-07-08T08:20:21.428Z,59.6
2018-07-08T08:21:11.902Z,59.6
2018-07-08T08:22:01.293Z,59.6
2018-07-08T08:22:51.351Z,59.6
2018-07-08T08:23:41.387Z,59.6
2018-07-08T08:24:31.478Z,59.6
2018-07-08T08:25:21.267Z,59.6
2018-07-08T08:26:11.600Z,59.6
2018-07-08T08:27:01.977Z,59.6
2018-07-08T08:27:51.161Z,59.6
2018-07-08T08:28:41.515Z,59.6
2018-07-08T08:29:31.875Z,59.6
2018-07-08T08:30:21.925Z,59.5
2018-07-08T08:31:11.998Z,59.6
2018-07-08T08:32:02.101Z,59.5
2018-07-08T08:32:52.622Z,59.5
2018-07-08T08:33:42.190Z,59.5
2018-07-08T08:34:32.296Z,59.5
2018-07-08T08:35:22.606Z,59.5
2018-07-08T08:36:12.665Z,59.5
2018-07-08T08:37:02.428Z,59.4
2018-07-08T08:37:52.211Z,59.5
2018-07-08T08:38:42.827Z,59.4
2018-07-08T08:39:32.720Z,59.4
2018-07-08T08:40:22.430Z,59.4
2018-07-08T08:41:13.013Z,59.4
2018-07-08T08:42:02.843Z,59.4
2018-07-08T08:42:53.158Z,59.4
2018-07-08T08:43:43.236Z,59.4
2018-07-08T08:44:32.489Z,59.4
2018-07-08T08:45:23.383Z,59.4
2018-07-08T08:46:13.144Z,59.4
2018-07-08T08:47:03.216Z,59.4
2018-07-08T08:47:53.283Z,59.4
2018-07-08T08:48:42.780Z,59.3
2018-07-08T08:49:33.685Z,59.3
2018-07-08T08:50:22.895Z,59.3
2018-07-08T08:51:13.256Z,59.3
2018-07-08T08:52:03.887Z,59.3
2018-07-08T08:52:53.393Z,59.3
2018-07-08T08:53:43.455Z,59.3
2018-07-08T08:54:33.251Z,59.3
2018-07-08T08:55:23.318Z,59.3
2018-07-08T08:56:13.643Z,59.3
2018-07-08T08:57:03.416Z,59.3
2018-07-08T08:57:54.035Z,59.3
2018-07-08T08:58:43.836Z,59.3
2018-07-08T08:59:34.199Z,59.3
2018-07-08T09:00:24.280Z,59.2
2018-07-08T09:01:14.602Z,59.3
2018-07-08T09:02:04.656Z,59.2
2018-07-08T09:02:54.715Z,59.2
2018-07-08T09:03:45.176Z,59.2
2018-07-08T09:04:34.859Z,59.2
2018-07-08T09:05:24.063Z,59.2
2018-07-08T09:06:14.155Z,59.2
2018-07-08T09:07:04.787Z,59.2
2018-07-08T09:07:54.839Z,59.1
2018-07-08T09:08:44.907Z,59.1
2018-07-08T09:09:35.227Z,59.1
2018-07-08T09:10:25.315Z,59.1
2018-07-08T09:11:15.374Z,59.1
2018-07-08T09:12:05.136Z,59.1
2018-07-08T09:12:54.930Z,59.1
2018-07-08T09:13:45.552Z,59.1
2018-07-08T09:14:35.629Z,59.1
2018-07-08T09:15:25.415Z,59.1
2018-07-08T09:16:15.728Z,59.1
2018-07-08T09:17:05.814Z,59.1
2018-07-08T09:17:55.863Z,59.1
2018-07-08T09:18:45.113Z,59
2018-07-08T09:19:35.743Z,59
2018-07-08T09:20:25.885Z,59
2018-07-08T09:21:16.156Z,59
2018-07-08T09:22:05.723Z,59
2018-07-08T09:22:55.743Z,59
2018-07-08T09:23:46.963Z,59
2018-07-08T09:24:36.211Z,58.9
2018-07-08T09:25:26.200Z,59
2018-07-08T09:26:16.525Z,58.9
2018-07-08T09:27:05.847Z,58.9
2018-07-08T09:27:56.643Z,58.9
2018-07-08T09:28:46.181Z,58.9
2018-07-08T09:29:36.245Z,58.9
2018-07-08T09:30:26.835Z,58.9
2018-07-08T09:31:16.656Z,58.9
2018-07-08T09:32:06.992Z,58.9
2018-07-08T09:32:56.801Z,58.9
2018-07-08T09:33:47.136Z,58.9
2018-07-08T09:34:37.219Z,58.9
2018-07-08T09:35:27.231Z,58.9
2018-07-08T09:36:17.319Z,58.9
2018-07-08T09:37:07.099Z,58.9
2018-07-08T09:37:56.859Z,58.8
2018-07-08T09:38:48.310Z,58.8
2018-07-08T09:39:36.729Z,58.8
2018-07-08T09:40:27.340Z,58.8
2018-07-08T09:41:17.702Z,58.8
2018-07-08T09:42:07.517Z,58.8
2018-07-08T09:42:57.546Z,58.8
2018-07-08T09:43:47.318Z,58.8
2018-07-08T09:44:37.957Z,58.8
2018-07-08T09:45:28.023Z,58.8
2018-07-08T09:46:17.507Z,58.8
2018-07-08T09:47:07.860Z,58.8
2018-07-08T09:47:57.956Z,58.8
2018-07-08T09:48:48.283Z,58.7
2018-07-08T09:49:38.334Z,58.7
2018-07-08T09:50:28.382Z,58.7
2018-07-08T09:51:18.166Z,58.7
2018-07-08T09:52:08.278Z,58.7
2018-07-08T09:52:58.561Z,58.6
2018-07-08T09:53:48.386Z,58.7
2018-07-08T09:54:38.727Z,58.7
2018-07-08T09:55:28.819Z,58.6
2018-07-08T09:56:18.570Z,58.6
2018-07-08T09:57:08.953Z,58.6
2018-07-08T09:57:59.445Z,58.6
2018-07-08T09:58:49.043Z,58.6
2018-07-08T09:59:39.095Z,58.6
2018-07-08T10:06:19.643Z,58.5
2018-07-08T10:07:09.700Z,58.5
2018-07-08T10:07:59.789Z,58.5
2018-07-08T10:08:50.437Z,58.5
2018-07-08T10:09:39.954Z,58.5
2018-07-08T10:10:29.967Z,58.5
2018-07-08T10:11:18.899Z,58.5
2018-07-08T10:12:10.137Z,58.5
2018-07-08T10:12:59.872Z,58.4
2018-07-08T10:13:51.173Z,58.4
2018-07-08T10:14:40.324Z,58.4
2018-07-08T10:15:30.314Z,58.4
2018-07-08T10:16:20.775Z,58.4
2018-07-08T10:17:10.900Z,58.4
2018-07-08T10:18:00.651Z,58.4
2018-07-08T10:18:50.203Z,58.4
2018-07-08T10:19:42.176Z,58.4
2018-07-08T10:20:30.723Z,58.4
2018-07-08T10:21:20.950Z,58.4
2018-07-08T10:22:10.844Z,58.4
2018-07-08T10:23:00.909Z,58.4
2018-07-08T10:23:50.985Z,58.3
2018-07-08T10:24:40.755Z,58.3
2018-07-08T10:25:31.073Z,58.3
2018-07-08T10:26:20.890Z,58.3
2018-07-08T10:27:11.244Z,58.3
2018-07-08T10:28:01.021Z,58.3
2018-07-08T10:28:51.343Z,58.3
2018-07-08T10:29:41.177Z,58.3
2018-07-08T10:30:30.434Z,58.3
2018-07-08T10:31:20.533Z,58.3
2018-07-08T10:32:11.073Z,58.3
2018-07-08T10:33:01.420Z,58.3
2018-07-08T10:33:51.220Z,58.3
2018-07-08T10:34:41.287Z,58.3
2018-07-08T10:35:31.918Z,58.3
2018-07-08T10:36:21.945Z,58.2
2018-07-08T10:37:11.021Z,58.2
2018-07-08T10:38:01.331Z,58.2
2018-07-08T10:38:52.150Z,58.2
2018-07-08T10:39:41.448Z,58.2
2018-07-08T10:40:31.455Z,58.2
2018-07-08T10:41:21.855Z,58.2
2018-07-08T10:42:11.916Z,58.2
2018-07-08T10:43:02.464Z,58.2
2018-07-08T10:43:52.601Z,58.1
2018-07-08T10:44:42.319Z,58.1
2018-07-08T10:45:32.082Z,58.1
2018-07-08T10:46:22.188Z,58.1
2018-07-08T10:47:12.780Z,58.1
2018-07-08T10:48:02.857Z,58.1
2018-07-08T10:48:52.315Z,58.1
2018-07-08T10:49:42.994Z,58.1
2018-07-08T10:50:32.477Z,58.1
2018-07-08T10:51:22.842Z,58.1
2018-07-08T10:52:13.183Z,58.1
2018-07-08T10:53:02.984Z,58.1
2018-07-08T10:53:52.766Z,58.1
2018-07-08T10:54:43.376Z,58.1
2018-07-08T10:55:33.442Z,58
2018-07-08T10:56:23.501Z,58
2018-07-08T10:57:13.315Z,58
2018-07-08T10:58:03.356Z,58
2018-07-08T10:58:53.426Z,58
2018-07-08T10:59:43.481Z,58
2018-07-08T11:00:33.849Z,57.9
2018-07-08T11:01:23.068Z,57.9
2018-07-08T11:02:13.674Z,57.9
2018-07-08T11:03:03.766Z,57.9
2018-07-08T11:03:53.273Z,57.9
2018-07-08T11:04:43.864Z,57.9
2018-07-08T11:05:34.228Z,57.9
2018-07-08T11:06:23.443Z,57.9
2018-07-08T11:07:14.380Z,57.9
2018-07-08T11:08:04.118Z,57.9
2018-07-08T11:08:53.921Z,57.9
2018-07-08T11:09:44.010Z,57.9
2018-07-08T11:10:34.387Z,57.9
2018-07-08T11:11:24.667Z,57.9
2018-07-08T11:12:13.884Z,57.8
2018-07-08T11:13:04.794Z,57.8
2018-07-08T11:13:54.288Z,57.9
2018-07-08T11:14:44.385Z,57.8
2018-07-08T11:15:35.014Z,57.8
2018-07-08T11:16:24.495Z,57.8
2018-07-08T11:17:15.102Z,57.8